sensor_id;sensor_type;location;lat;lon;timestamp;P1;durP1;ratioP1;P2;durP2;ratioP2
54947;SDS011;41113;41.882;12.530;2023-04-30T00:01:03;23.23;;;9.82;;
54947;SDS011;41113;41.882;12.530;2023-04-30T00:03:28;17.42;;;9.07;;
54947;SDS011;41113;41.882;12.530;2023-04-30T00:05:53;17.05;;;8.55;;
54947;SDS011;41113;41.882;12.530;2023-04-30T00:08:20;23.83;;;9.73;;
54947;SDS011;41113;41.882;12.530;2023-04-30T00:10:45;17.52;;;9.23;;
54947;SDS011;41113;41.882;12.530;2023-04-30T00:13:11;19.58;;;11.88;;
54947;SDS011;41113;41.882;12.530;2023-04-30T00:15:38;19.02;;;10.35;;
54947;SDS011;41113;41.882;12.530;2023-04-30T00:18:03;16.13;;;9.18;;
54947;SDS011;41113;41.882;12.530;2023-04-30T00:20:30;15.48;;;8.40;;
54947;SDS011;41113;41.882;12.530;2023-04-30T00:22:56;17.40;;;8.18;;
54947;SDS011;41113;41.882;12.530;2023-04-30T00:25:24;14.70;;;7.70;;
54947;SDS011;41113;41.882;12.530;2023-04-30T00:27:49;13.55;;;7.60;;
54947;SDS011;41113;41.882;12.530;2023-04-30T00:30:15;19.95;;;10.25;;
54947;SDS011;41113;41.882;12.530;2023-04-30T00:32:41;22.85;;;9.75;;
54947;SDS011;41113;41.882;12.530;2023-04-30T00:35:06;19.75;;;9.82;;
54947;SDS011;41113;41.882;12.530;2023-04-30T00:37:32;19.40;;;9.45;;
54947;SDS011;41113;41.882;12.530;2023-04-30T00:39:57;20.75;;;10.20;;
54947;SDS011;41113;41.882;12.530;2023-04-30T00:42:22;22.33;;;9.82;;
54947;SDS011;41113;41.882;12.530;2023-04-30T00:44:48;18.98;;;9.38;;
54947;SDS011;41113;41.882;12.530;2023-04-30T00:47:13;19.45;;;9.60;;
54947;SDS011;41113;41.882;12.530;2023-04-30T00:49:39;21.40;;;9.98;;
54947;SDS011;41113;41.882;12.530;2023-04-30T00:52:04;20.33;;;8.93;;
54947;SDS011;41113;41.882;12.530;2023-04-30T00:54:30;23.38;;;9.93;;
54947;SDS011;41113;41.882;12.530;2023-04-30T00:56:56;22.00;;;9.88;;
54947;SDS011;41113;41.882;12.530;2023-04-30T00:59:22;18.98;;;9.48;;
54947;SDS011;41113;41.882;12.530;2023-04-30T01:01:48;18.70;;;8.05;;
54947;SDS011;41113;41.882;12.530;2023-04-30T01:04:13;19.95;;;8.70;;
54947;SDS011;41113;41.882;12.530;2023-04-30T01:06:39;17.73;;;8.85;;
54947;SDS011;41113;41.882;12.530;2023-04-30T01:09:05;18.42;;;8.82;;
54947;SDS011;41113;41.882;12.530;2023-04-30T01:14:12;20.17;;;8.85;;
54947;SDS011;41113;41.882;12.530;2023-04-30T01:16:47;19.02;;;9.65;;
54947;SDS011;41113;41.882;12.530;2023-04-30T01:19:28;19.48;;;9.75;;
54947;SDS011;41113;41.882;12.530;2023-04-30T01:21:58;20.52;;;9.75;;
54947;SDS011;41113;41.882;12.530;2023-04-30T01:27:06;18.77;;;8.90;;
54947;SDS011;41113;41.882;12.530;2023-04-30T01:29:46;22.42;;;9.65;;
54947;SDS011;41113;41.882;12.530;2023-04-30T01:32:12;17.17;;;9.15;;
54947;SDS011;41113;41.882;12.530;2023-04-30T01:34:37;21.00;;;10.30;;
54947;SDS011;41113;41.882;12.530;2023-04-30T01:37:17;20.95;;;9.63;;
54947;SDS011;41113;41.882;12.530;2023-04-30T01:42:24;17.80;;;9.27;;
54947;SDS011;41113;41.882;12.530;2023-04-30T01:48:02;17.23;;;7.93;;
54947;SDS011;41113;41.882;12.530;2023-04-30T01:50:48;17.13;;;9.10;;
54947;SDS011;41113;41.882;12.530;2023-04-30T01:53:20;23.95;;;10.02;;
54947;SDS011;41113;41.882;12.530;2023-04-30T01:55:50;19.23;;;10.25;;
54947;SDS011;41113;41.882;12.530;2023-04-30T01:58:21;23.98;;;10.38;;
54947;SDS011;41113;41.882;12.530;2023-04-30T02:00:48;15.50;;;9.02;;
54947;SDS011;41113;41.882;12.530;2023-04-30T02:03:14;19.35;;;8.93;;
54947;SDS011;41113;41.882;12.530;2023-04-30T02:05:39;21.95;;;9.77;;
54947;SDS011;41113;41.882;12.530;2023-04-30T02:08:05;18.48;;;9.13;;
54947;SDS011;41113;41.882;12.530;2023-04-30T02:10:30;19.13;;;8.93;;
54947;SDS011;41113;41.882;12.530;2023-04-30T02:12:56;18.10;;;9.63;;
54947;SDS011;41113;41.882;12.530;2023-04-30T02:15:21;19.80;;;9.02;;
54947;SDS011;41113;41.882;12.530;2023-04-30T02:17:47;15.35;;;8.48;;
54947;SDS011;41113;41.882;12.530;2023-04-30T02:20:12;18.10;;;9.38;;
54947;SDS011;41113;41.882;12.530;2023-04-30T02:22:37;20.40;;;8.73;;
54947;SDS011;41113;41.882;12.530;2023-04-30T02:25:03;18.88;;;8.15;;
54947;SDS011;41113;41.882;12.530;2023-04-30T02:27:29;18.42;;;9.73;;
54947;SDS011;41113;41.882;12.530;2023-04-30T02:29:56;19.38;;;9.15;;
54947;SDS011;41113;41.882;12.530;2023-04-30T02:32:21;16.95;;;8.98;;
54947;SDS011;41113;41.882;12.530;2023-04-30T02:34:47;22.75;;;9.88;;
54947;SDS011;41113;41.882;12.530;2023-04-30T02:37:13;21.40;;;9.50;;
54947;SDS011;41113;41.882;12.530;2023-04-30T02:39:38;22.42;;;8.75;;
54947;SDS011;41113;41.882;12.530;2023-04-30T02:42:05;21.23;;;10.40;;
54947;SDS011;41113;41.882;12.530;2023-04-30T02:44:31;18.27;;;9.23;;
54947;SDS011;41113;41.882;12.530;2023-04-30T02:46:57;20.88;;;9.32;;
54947;SDS011;41113;41.882;12.530;2023-04-30T02:49:23;21.50;;;9.40;;
54947;SDS011;41113;41.882;12.530;2023-04-30T02:51:48;18.02;;;8.75;;
54947;SDS011;41113;41.882;12.530;2023-04-30T02:54:13;19.35;;;8.88;;
54947;SDS011;41113;41.882;12.530;2023-04-30T02:56:39;17.40;;;8.30;;
54947;SDS011;41113;41.882;12.530;2023-04-30T02:59:04;18.33;;;9.75;;
54947;SDS011;41113;41.882;12.530;2023-04-30T03:01:30;20.42;;;10.73;;
54947;SDS011;41113;41.882;12.530;2023-04-30T03:03:55;18.38;;;10.77;;
54947;SDS011;41113;41.882;12.530;2023-04-30T03:06:22;24.05;;;10.90;;
54947;SDS011;41113;41.882;12.530;2023-04-30T03:08:47;20.42;;;10.07;;
54947;SDS011;41113;41.882;12.530;2023-04-30T03:11:13;21.00;;;10.75;;
54947;SDS011;41113;41.882;12.530;2023-04-30T03:13:38;19.55;;;9.90;;
54947;SDS011;41113;41.882;12.530;2023-04-30T03:16:03;17.77;;;9.90;;
54947;SDS011;41113;41.882;12.530;2023-04-30T03:18:29;21.70;;;10.00;;
54947;SDS011;41113;41.882;12.530;2023-04-30T03:20:55;19.08;;;8.90;;
54947;SDS011;41113;41.882;12.530;2023-04-30T03:23:21;20.05;;;11.30;;
54947;SDS011;41113;41.882;12.530;2023-04-30T03:25:46;21.17;;;12.45;;
54947;SDS011;41113;41.882;12.530;2023-04-30T03:28:12;22.63;;;12.25;;
54947;SDS011;41113;41.882;12.530;2023-04-30T03:30:38;24.25;;;13.55;;
54947;SDS011;41113;41.882;12.530;2023-04-30T03:33:03;20.52;;;11.77;;
54947;SDS011;41113;41.882;12.530;2023-04-30T03:35:33;22.92;;;12.07;;
54947;SDS011;41113;41.882;12.530;2023-04-30T03:38:01;19.65;;;11.30;;
54947;SDS011;41113;41.882;12.530;2023-04-30T03:40:27;19.17;;;10.40;;
54947;SDS011;41113;41.882;12.530;2023-04-30T03:42:53;19.80;;;9.73;;
54947;SDS011;41113;41.882;12.530;2023-04-30T03:45:18;19.73;;;9.52;;
54947;SDS011;41113;41.882;12.530;2023-04-30T03:47:43;22.92;;;10.57;;
54947;SDS011;41113;41.882;12.530;2023-04-30T03:50:10;22.83;;;10.10;;
54947;SDS011;41113;41.882;12.530;2023-04-30T03:52:37;19.63;;;9.25;;
54947;SDS011;41113;41.882;12.530;2023-04-30T03:55:03;23.42;;;11.65;;
54947;SDS011;41113;41.882;12.530;2023-04-30T03:57:28;20.92;;;11.60;;
54947;SDS011;41113;41.882;12.530;2023-04-30T03:59:54;19.33;;;10.68;;
54947;SDS011;41113;41.882;12.530;2023-04-30T04:02:20;19.42;;;10.20;;
54947;SDS011;41113;41.882;12.530;2023-04-30T04:04:46;17.83;;;9.70;;
54947;SDS011;41113;41.882;12.530;2023-04-30T04:07:12;20.33;;;9.80;;
54947;SDS011;41113;41.882;12.530;2023-04-30T04:09:37;18.23;;;10.43;;
54947;SDS011;41113;41.882;12.530;2023-04-30T04:12:03;20.33;;;10.38;;
54947;SDS011;41113;41.882;12.530;2023-04-30T04:14:29;18.25;;;9.77;;
54947;SDS011;41113;41.882;12.530;2023-04-30T04:16:54;22.83;;;11.30;;
54947;SDS011;41113;41.882;12.530;2023-04-30T04:19:21;23.10;;;11.38;;
54947;SDS011;41113;41.882;12.530;2023-04-30T04:21:47;22.25;;;10.80;;
54947;SDS011;41113;41.882;12.530;2023-04-30T04:24:12;21.80;;;11.52;;
54947;SDS011;41113;41.882;12.530;2023-04-30T04:26:38;19.35;;;10.15;;
54947;SDS011;41113;41.882;12.530;2023-04-30T04:29:03;20.67;;;10.50;;
54947;SDS011;41113;41.882;12.530;2023-04-30T04:31:29;22.20;;;11.25;;
54947;SDS011;41113;41.882;12.530;2023-04-30T04:33:56;17.05;;;10.30;;
54947;SDS011;41113;41.882;12.530;2023-04-30T04:36:24;20.43;;;11.37;;
54947;SDS011;41113;41.882;12.530;2023-04-30T04:38:51;21.88;;;11.48;;
54947;SDS011;41113;41.882;12.530;2023-04-30T04:41:17;21.88;;;11.70;;
54947;SDS011;41113;41.882;12.530;2023-04-30T04:43:42;26.20;;;12.63;;
54947;SDS011;41113;41.882;12.530;2023-04-30T04:46:08;22.40;;;11.35;;
54947;SDS011;41113;41.882;12.530;2023-04-30T04:48:33;20.00;;;11.27;;
54947;SDS011;41113;41.882;12.530;2023-04-30T04:50:59;17.55;;;10.60;;
54947;SDS011;41113;41.882;12.530;2023-04-30T04:53:24;20.10;;;10.80;;
54947;SDS011;41113;41.882;12.530;2023-04-30T04:55:52;20.55;;;10.45;;
54947;SDS011;41113;41.882;12.530;2023-04-30T04:58:18;18.90;;;10.57;;
54947;SDS011;41113;41.882;12.530;2023-04-30T05:00:43;16.38;;;9.85;;
54947;SDS011;41113;41.882;12.530;2023-04-30T05:03:09;18.88;;;8.23;;
54947;SDS011;41113;41.882;12.530;2023-04-30T05:05:34;17.50;;;8.80;;
54947;SDS011;41113;41.882;12.530;2023-04-30T05:08:00;15.95;;;7.70;;
54947;SDS011;41113;41.882;12.530;2023-04-30T05:10:25;16.75;;;7.25;;
54947;SDS011;41113;41.882;12.530;2023-04-30T05:12:50;13.57;;;6.75;;
54947;SDS011;41113;41.882;12.530;2023-04-30T05:15:16;18.58;;;7.72;;
54947;SDS011;41113;41.882;12.530;2023-04-30T05:17:41;19.45;;;9.05;;
54947;SDS011;41113;41.882;12.530;2023-04-30T05:20:07;13.95;;;7.55;;
54947;SDS011;41113;41.882;12.530;2023-04-30T05:22:33;20.02;;;8.68;;
54947;SDS011;41113;41.882;12.530;2023-04-30T05:24:58;18.63;;;8.57;;
54947;SDS011;41113;41.882;12.530;2023-04-30T05:27:24;23.38;;;11.88;;
54947;SDS011;41113;41.882;12.530;2023-04-30T05:29:50;19.80;;;10.55;;
54947;SDS011;41113;41.882;12.530;2023-04-30T05:32:15;18.58;;;8.80;;
54947;SDS011;41113;41.882;12.530;2023-04-30T05:34:41;29.60;;;14.43;;
54947;SDS011;41113;41.882;12.530;2023-04-30T05:37:06;18.10;;;10.00;;
54947;SDS011;41113;41.882;12.530;2023-04-30T05:39:31;19.23;;;10.95;;
54947;SDS011;41113;41.882;12.530;2023-04-30T05:41:57;18.90;;;10.90;;
54947;SDS011;41113;41.882;12.530;2023-04-30T05:44:22;21.27;;;10.90;;
54947;SDS011;41113;41.882;12.530;2023-04-30T05:46:47;17.08;;;9.48;;
54947;SDS011;41113;41.882;12.530;2023-04-30T05:49:13;18.98;;;10.13;;
54947;SDS011;41113;41.882;12.530;2023-04-30T05:51:38;21.92;;;11.48;;
54947;SDS011;41113;41.882;12.530;2023-04-30T05:54:05;18.95;;;10.20;;
54947;SDS011;41113;41.882;12.530;2023-04-30T05:56:30;19.13;;;11.05;;
54947;SDS011;41113;41.882;12.530;2023-04-30T05:58:56;19.30;;;10.23;;
54947;SDS011;41113;41.882;12.530;2023-04-30T06:01:21;18.42;;;10.43;;
54947;SDS011;41113;41.882;12.530;2023-04-30T06:03:47;15.93;;;9.45;;
54947;SDS011;41113;41.882;12.530;2023-04-30T06:06:12;20.80;;;8.98;;
54947;SDS011;41113;41.882;12.530;2023-04-30T06:08:38;20.60;;;9.82;;
54947;SDS011;41113;41.882;12.530;2023-04-30T06:11:06;18.30;;;10.52;;
54947;SDS011;41113;41.882;12.530;2023-04-30T06:13:31;17.33;;;10.85;;
54947;SDS011;41113;41.882;12.530;2023-04-30T06:15:59;19.45;;;10.55;;
54947;SDS011;41113;41.882;12.530;2023-04-30T06:18:25;17.55;;;9.02;;
54947;SDS011;41113;41.882;12.530;2023-04-30T06:20:50;21.98;;;11.23;;
54947;SDS011;41113;41.882;12.530;2023-04-30T06:23:16;17.40;;;9.68;;
54947;SDS011;41113;41.882;12.530;2023-04-30T06:25:41;19.33;;;10.32;;
54947;SDS011;41113;41.882;12.530;2023-04-30T06:28:06;16.60;;;9.95;;
54947;SDS011;41113;41.882;12.530;2023-04-30T06:30:33;23.83;;;10.90;;
54947;SDS011;41113;41.882;12.530;2023-04-30T06:32:59;15.82;;;8.25;;
54947;SDS011;41113;41.882;12.530;2023-04-30T06:35:26;18.73;;;9.73;;
54947;SDS011;41113;41.882;12.530;2023-04-30T06:37:51;15.23;;;8.88;;
54947;SDS011;41113;41.882;12.530;2023-04-30T06:40:16;19.75;;;10.20;;
54947;SDS011;41113;41.882;12.530;2023-04-30T06:42:42;20.63;;;10.52;;
54947;SDS011;41113;41.882;12.530;2023-04-30T06:45:07;17.73;;;9.77;;
54947;SDS011;41113;41.882;12.530;2023-04-30T06:47:33;16.10;;;8.88;;
54947;SDS011;41113;41.882;12.530;2023-04-30T06:50:02;19.33;;;10.10;;
54947;SDS011;41113;41.882;12.530;2023-04-30T06:52:29;15.63;;;8.82;;
54947;SDS011;41113;41.882;12.530;2023-04-30T06:54:56;17.67;;;9.60;;
54947;SDS011;41113;41.882;12.530;2023-04-30T06:57:21;16.65;;;9.20;;
54947;SDS011;41113;41.882;12.530;2023-04-30T06:59:46;18.75;;;9.73;;
54947;SDS011;41113;41.882;12.530;2023-04-30T07:02:12;19.10;;;9.25;;
54947;SDS011;41113;41.882;12.530;2023-04-30T07:04:37;14.95;;;8.65;;
54947;SDS011;41113;41.882;12.530;2023-04-30T07:07:03;16.42;;;8.85;;
54947;SDS011;41113;41.882;12.530;2023-04-30T07:09:29;16.17;;;8.20;;
54947;SDS011;41113;41.882;12.530;2023-04-30T07:11:55;17.40;;;8.75;;
54947;SDS011;41113;41.882;12.530;2023-04-30T07:14:22;17.30;;;9.43;;
54947;SDS011;41113;41.882;12.530;2023-04-30T07:16:51;18.05;;;8.48;;
54947;SDS011;41113;41.882;12.530;2023-04-30T07:19:17;14.82;;;8.60;;
54947;SDS011;41113;41.882;12.530;2023-04-30T07:21:43;17.25;;;9.18;;
54947;SDS011;41113;41.882;12.530;2023-04-30T07:24:08;16.70;;;9.15;;
54947;SDS011;41113;41.882;12.530;2023-04-30T07:26:34;18.10;;;8.75;;
54947;SDS011;41113;41.882;12.530;2023-04-30T07:29:00;16.98;;;9.07;;
54947;SDS011;41113;41.882;12.530;2023-04-30T07:31:26;23.55;;;13.02;;
54947;SDS011;41113;41.882;12.530;2023-04-30T07:33:51;18.90;;;10.27;;
54947;SDS011;41113;41.882;12.530;2023-04-30T07:36:17;19.90;;;9.65;;
54947;SDS011;41113;41.882;12.530;2023-04-30T07:38:42;19.20;;;11.05;;
54947;SDS011;41113;41.882;12.530;2023-04-30T07:41:09;22.20;;;10.27;;
54947;SDS011;41113;41.882;12.530;2023-04-30T07:43:34;15.80;;;9.38;;
54947;SDS011;41113;41.882;12.530;2023-04-30T07:46:01;15.07;;;8.95;;
54947;SDS011;41113;41.882;12.530;2023-04-30T07:48:27;17.95;;;9.63;;
54947;SDS011;41113;41.882;12.530;2023-04-30T07:50:53;17.95;;;8.02;;
54947;SDS011;41113;41.882;12.530;2023-04-30T07:53:18;18.90;;;9.77;;
54947;SDS011;41113;41.882;12.530;2023-04-30T07:55:44;19.15;;;9.50;;
54947;SDS011;41113;41.882;12.530;2023-04-30T07:58:09;20.30;;;9.93;;
54947;SDS011;41113;41.882;12.530;2023-04-30T08:00:35;17.15;;;8.65;;
54947;SDS011;41113;41.882;12.530;2023-04-30T08:03:00;13.38;;;7.15;;
54947;SDS011;41113;41.882;12.530;2023-04-30T08:05:25;12.75;;;6.70;;
54947;SDS011;41113;41.882;12.530;2023-04-30T08:07:51;20.58;;;12.20;;
54947;SDS011;41113;41.882;12.530;2023-04-30T08:10:17;18.02;;;9.40;;
54947;SDS011;41113;41.882;12.530;2023-04-30T08:12:43;17.23;;;8.60;;
54947;SDS011;41113;41.882;12.530;2023-04-30T08:15:09;15.52;;;7.85;;
54947;SDS011;41113;41.882;12.530;2023-04-30T08:17:34;17.20;;;8.23;;
54947;SDS011;41113;41.882;12.530;2023-04-30T08:20:01;13.30;;;8.80;;
54947;SDS011;41113;41.882;12.530;2023-04-30T08:22:27;15.82;;;7.97;;
54947;SDS011;41113;41.882;12.530;2023-04-30T08:24:53;13.82;;;7.50;;
54947;SDS011;41113;41.882;12.530;2023-04-30T08:27:19;17.67;;;8.00;;
54947;SDS011;41113;41.882;12.530;2023-04-30T08:29:45;16.73;;;8.20;;
54947;SDS011;41113;41.882;12.530;2023-04-30T08:32:10;13.55;;;7.65;;
54947;SDS011;41113;41.882;12.530;2023-04-30T08:34:36;15.85;;;7.03;;
54947;SDS011;41113;41.882;12.530;2023-04-30T08:37:07;15.75;;;6.50;;
54947;SDS011;41113;41.882;12.530;2023-04-30T08:39:33;13.52;;;7.00;;
54947;SDS011;41113;41.882;12.530;2023-04-30T08:42:00;13.30;;;7.13;;
54947;SDS011;41113;41.882;12.530;2023-04-30T08:44:27;14.68;;;6.82;;
54947;SDS011;41113;41.882;12.530;2023-04-30T08:46:54;14.43;;;7.70;;
54947;SDS011;41113;41.882;12.530;2023-04-30T08:49:21;12.98;;;7.10;;
54947;SDS011;41113;41.882;12.530;2023-04-30T08:51:48;12.43;;;6.53;;
54947;SDS011;41113;41.882;12.530;2023-04-30T08:54:14;12.40;;;6.88;;
54947;SDS011;41113;41.882;12.530;2023-04-30T08:56:40;11.48;;;5.97;;
54947;SDS011;41113;41.882;12.530;2023-04-30T08:59:06;12.43;;;6.38;;
54947;SDS011;41113;41.882;12.530;2023-04-30T09:01:32;13.90;;;6.47;;
54947;SDS011;41113;41.882;12.530;2023-04-30T09:03:58;14.98;;;7.15;;
54947;SDS011;41113;41.882;12.530;2023-04-30T09:06:24;13.00;;;6.00;;
54947;SDS011;41113;41.882;12.530;2023-04-30T09:08:51;14.05;;;6.70;;
54947;SDS011;41113;41.882;12.530;2023-04-30T09:11:22;14.57;;;6.13;;
54947;SDS011;41113;41.882;12.530;2023-04-30T09:13:52;14.77;;;5.45;;
54947;SDS011;41113;41.882;12.530;2023-04-30T09:16:19;12.05;;;5.80;;
54947;SDS011;41113;41.882;12.530;2023-04-30T09:18:46;13.98;;;6.15;;
54947;SDS011;41113;41.882;12.530;2023-04-30T09:21:12;13.88;;;5.22;;
54947;SDS011;41113;41.882;12.530;2023-04-30T09:23:59;13.10;;;5.18;;
54947;SDS011;41113;41.882;12.530;2023-04-30T09:26:26;11.50;;;5.35;;
54947;SDS011;41113;41.882;12.530;2023-04-30T09:28:56;11.73;;;5.28;;
54947;SDS011;41113;41.882;12.530;2023-04-30T09:31:23;16.65;;;6.38;;
54947;SDS011;41113;41.882;12.530;2023-04-30T09:33:50;12.35;;;5.38;;
54947;SDS011;41113;41.882;12.530;2023-04-30T09:36:18;11.75;;;5.32;;
54947;SDS011;41113;41.882;12.530;2023-04-30T09:38:44;11.30;;;5.13;;
54947;SDS011;41113;41.882;12.530;2023-04-30T09:43:50;10.07;;;4.32;;
54947;SDS011;41113;41.882;12.530;2023-04-30T09:46:17;11.55;;;4.57;;
54947;SDS011;41113;41.882;12.530;2023-04-30T09:48:44;14.75;;;5.38;;
54947;SDS011;41113;41.882;12.530;2023-04-30T09:51:10;11.27;;;4.20;;
54947;SDS011;41113;41.882;12.530;2023-04-30T09:53:39;13.63;;;4.90;;
54947;SDS011;41113;41.882;12.530;2023-04-30T09:56:07;9.40;;;3.75;;
54947;SDS011;41113;41.882;12.530;2023-04-30T09:58:36;12.10;;;4.72;;
54947;SDS011;41113;41.882;12.530;2023-04-30T10:01:05;11.77;;;5.07;;
54947;SDS011;41113;41.882;12.530;2023-04-30T10:03:35;14.65;;;5.18;;
54947;SDS011;41113;41.882;12.530;2023-04-30T10:06:03;15.40;;;3.95;;
54947;SDS011;41113;41.882;12.530;2023-04-30T10:08:33;10.18;;;4.00;;
54947;SDS011;41113;41.882;12.530;2023-04-30T10:11:04;12.30;;;4.47;;
54947;SDS011;41113;41.882;12.530;2023-04-30T10:13:32;11.27;;;4.07;;
54947;SDS011;41113;41.882;12.530;2023-04-30T10:16:11;11.52;;;4.53;;
54947;SDS011;41113;41.882;12.530;2023-04-30T10:18:46;8.70;;;3.67;;
54947;SDS011;41113;41.882;12.530;2023-04-30T10:21:15;10.63;;;4.50;;
54947;SDS011;41113;41.882;12.530;2023-04-30T10:23:42;13.55;;;4.20;;
54947;SDS011;41113;41.882;12.530;2023-04-30T10:26:09;10.63;;;3.88;;
54947;SDS011;41113;41.882;12.530;2023-04-30T10:28:36;9.85;;;3.88;;
54947;SDS011;41113;41.882;12.530;2023-04-30T10:31:02;10.65;;;3.47;;
54947;SDS011;41113;41.882;12.530;2023-04-30T10:35:58;9.85;;;3.60;;
54947;SDS011;41113;41.882;12.530;2023-04-30T10:38:27;11.38;;;3.72;;
54947;SDS011;41113;41.882;12.530;2023-04-30T10:40:57;9.98;;;3.53;;
54947;SDS011;41113;41.882;12.530;2023-04-30T10:43:25;11.43;;;4.20;;
54947;SDS011;41113;41.882;12.530;2023-04-30T10:45:53;9.48;;;3.80;;
54947;SDS011;41113;41.882;12.530;2023-04-30T10:48:22;11.63;;;4.28;;
54947;SDS011;41113;41.882;12.530;2023-04-30T10:50:49;12.07;;;4.40;;
54947;SDS011;41113;41.882;12.530;2023-04-30T10:53:17;11.70;;;4.25;;
54947;SDS011;41113;41.882;12.530;2023-04-30T10:55:56;9.88;;;3.78;;
54947;SDS011;41113;41.882;12.530;2023-04-30T10:58:31;10.10;;;4.38;;
54947;SDS011;41113;41.882;12.530;2023-04-30T11:01:11;11.13;;;4.18;;
54947;SDS011;41113;41.882;12.530;2023-04-30T11:03:42;11.50;;;4.70;;
54947;SDS011;41113;41.882;12.530;2023-04-30T11:06:28;12.98;;;5.95;;
54947;SDS011;41113;41.882;12.530;2023-04-30T11:09:13;12.95;;;4.93;;
54947;SDS011;41113;41.882;12.530;2023-04-30T11:11:39;16.48;;;5.82;;
54947;SDS011;41113;41.882;12.530;2023-04-30T11:14:04;12.18;;;5.55;;
54947;SDS011;41113;41.882;12.530;2023-04-30T11:16:30;13.65;;;5.38;;
54947;SDS011;41113;41.882;12.530;2023-04-30T11:19:13;11.40;;;5.70;;
54947;SDS011;41113;41.882;12.530;2023-04-30T11:27:24;10.52;;;4.80;;
54947;SDS011;41113;41.882;12.530;2023-04-30T11:29:51;12.70;;;4.43;;
54947;SDS011;41113;41.882;12.530;2023-04-30T11:32:18;13.30;;;4.18;;
54947;SDS011;41113;41.882;12.530;2023-04-30T11:34:44;10.68;;;4.20;;
54947;SDS011;41113;41.882;12.530;2023-04-30T11:40:09;9.05;;;3.83;;
54947;SDS011;41113;41.882;12.530;2023-04-30T11:42:36;10.68;;;4.07;;
54947;SDS011;41113;41.882;12.530;2023-04-30T11:47:41;12.38;;;4.32;;
54947;SDS011;41113;41.882;12.530;2023-04-30T11:50:08;10.23;;;3.92;;
54947;SDS011;41113;41.882;12.530;2023-04-30T11:55:07;14.05;;;5.63;;
54947;SDS011;41113;41.882;12.530;2023-04-30T11:57:43;12.50;;;4.88;;
54947;SDS011;41113;41.882;12.530;2023-04-30T12:00:13;11.90;;;4.70;;
54947;SDS011;41113;41.882;12.530;2023-04-30T12:02:39;10.60;;;4.50;;
54947;SDS011;41113;41.882;12.530;2023-04-30T12:05:15;10.32;;;4.45;;
54947;SDS011;41113;41.882;12.530;2023-04-30T12:07:48;11.15;;;4.28;;
54947;SDS011;41113;41.882;12.530;2023-04-30T12:10:16;10.18;;;4.00;;
54947;SDS011;41113;41.882;12.530;2023-04-30T12:12:43;11.98;;;4.75;;
54947;SDS011;41113;41.882;12.530;2023-04-30T12:15:12;11.95;;;3.90;;
54947;SDS011;41113;41.882;12.530;2023-04-30T12:17:38;9.48;;;3.72;;
54947;SDS011;41113;41.882;12.530;2023-04-30T12:20:05;10.25;;;3.83;;
54947;SDS011;41113;41.882;12.530;2023-04-30T12:22:32;9.55;;;3.92;;
54947;SDS011;41113;41.882;12.530;2023-04-30T12:24:58;11.10;;;4.32;;
54947;SDS011;41113;41.882;12.530;2023-04-30T12:27:24;10.32;;;4.28;;
54947;SDS011;41113;41.882;12.530;2023-04-30T12:29:50;9.73;;;3.75;;
54947;SDS011;41113;41.882;12.530;2023-04-30T12:32:20;10.97;;;3.80;;
54947;SDS011;41113;41.882;12.530;2023-04-30T12:34:46;11.30;;;3.80;;
54947;SDS011;41113;41.882;12.530;2023-04-30T12:37:15;9.15;;;3.63;;
54947;SDS011;41113;41.882;12.530;2023-04-30T12:39:44;15.02;;;4.10;;
54947;SDS011;41113;41.882;12.530;2023-04-30T12:42:24;10.05;;;4.25;;
54947;SDS011;41113;41.882;12.530;2023-04-30T12:45:11;9.35;;;4.43;;
54947;SDS011;41113;41.882;12.530;2023-04-30T12:47:40;10.40;;;4.53;;
54947;SDS011;41113;41.882;12.530;2023-04-30T12:50:08;9.63;;;4.65;;
54947;SDS011;41113;41.882;12.530;2023-04-30T12:52:35;11.63;;;5.00;;
54947;SDS011;41113;41.882;12.530;2023-04-30T12:55:14;11.70;;;4.57;;
54947;SDS011;41113;41.882;12.530;2023-04-30T13:00:41;11.07;;;4.90;;
54947;SDS011;41113;41.882;12.530;2023-04-30T13:03:15;11.02;;;5.00;;
54947;SDS011;41113;41.882;12.530;2023-04-30T13:05:45;10.70;;;4.55;;
54947;SDS011;41113;41.882;12.530;2023-04-30T13:08:12;9.95;;;4.38;;
54947;SDS011;41113;41.882;12.530;2023-04-30T13:10:37;10.70;;;4.50;;
54947;SDS011;41113;41.882;12.530;2023-04-30T13:13:04;10.65;;;4.15;;
54947;SDS011;41113;41.882;12.530;2023-04-30T13:15:30;9.43;;;4.00;;
54947;SDS011;41113;41.882;12.530;2023-04-30T13:17:57;9.43;;;4.38;;
54947;SDS011;41113;41.882;12.530;2023-04-30T13:20:23;9.80;;;4.68;;
54947;SDS011;41113;41.882;12.530;2023-04-30T13:22:51;11.97;;;5.00;;
54947;SDS011;41113;41.882;12.530;2023-04-30T13:25:17;10.27;;;4.60;;
54947;SDS011;41113;41.882;12.530;2023-04-30T13:27:42;10.25;;;4.40;;
54947;SDS011;41113;41.882;12.530;2023-04-30T13:30:08;9.10;;;3.75;;
54947;SDS011;41113;41.882;12.530;2023-04-30T13:32:35;11.20;;;4.35;;
54947;SDS011;41113;41.882;12.530;2023-04-30T13:35:03;12.00;;;5.20;;
54947;SDS011;41113;41.882;12.530;2023-04-30T13:37:29;11.18;;;4.75;;
54947;SDS011;41113;41.882;12.530;2023-04-30T13:40:03;10.23;;;4.82;;
54947;SDS011;41113;41.882;12.530;2023-04-30T13:43:05;10.13;;;4.70;;
54947;SDS011;41113;41.882;12.530;2023-04-30T13:45:33;11.80;;;4.95;;
54947;SDS011;41113;41.882;12.530;2023-04-30T13:47:58;14.38;;;6.30;;
54947;SDS011;41113;41.882;12.530;2023-04-30T13:50:25;14.25;;;7.10;;
54947;SDS011;41113;41.882;12.530;2023-04-30T13:52:50;14.48;;;6.68;;
54947;SDS011;41113;41.882;12.530;2023-04-30T13:55:16;14.95;;;6.85;;
54947;SDS011;41113;41.882;12.530;2023-04-30T13:57:41;15.23;;;6.32;;
54947;SDS011;41113;41.882;12.530;2023-04-30T14:00:07;16.17;;;7.05;;
54947;SDS011;41113;41.882;12.530;2023-04-30T14:02:33;12.60;;;5.68;;
54947;SDS011;41113;41.882;12.530;2023-04-30T14:04:59;11.88;;;5.60;;
54947;SDS011;41113;41.882;12.530;2023-04-30T14:07:27;11.48;;;4.97;;
54947;SDS011;41113;41.882;12.530;2023-04-30T14:09:53;13.88;;;6.18;;
54947;SDS011;41113;41.882;12.530;2023-04-30T14:12:21;14.52;;;7.63;;
54947;SDS011;41113;41.882;12.530;2023-04-30T14:14:48;16.55;;;7.05;;
54947;SDS011;41113;41.882;12.530;2023-04-30T14:17:13;15.63;;;6.72;;
54947;SDS011;41113;41.882;12.530;2023-04-30T14:19:39;15.60;;;7.60;;
54947;SDS011;41113;41.882;12.530;2023-04-30T14:22:05;14.52;;;7.18;;
54947;SDS011;41113;41.882;12.530;2023-04-30T14:24:30;13.82;;;7.38;;
54947;SDS011;41113;41.882;12.530;2023-04-30T14:26:56;13.57;;;7.50;;
54947;SDS011;41113;41.882;12.530;2023-04-30T14:29:21;14.18;;;7.70;;
54947;SDS011;41113;41.882;12.530;2023-04-30T14:31:46;14.95;;;8.48;;
54947;SDS011;41113;41.882;12.530;2023-04-30T14:34:12;16.90;;;9.48;;
54947;SDS011;41113;41.882;12.530;2023-04-30T14:36:38;16.45;;;9.88;;
54947;SDS011;41113;41.882;12.530;2023-04-30T14:39:03;15.20;;;9.35;;
54947;SDS011;41113;41.882;12.530;2023-04-30T14:41:33;14.13;;;8.57;;
54947;SDS011;41113;41.882;12.530;2023-04-30T14:43:59;16.05;;;8.90;;
54947;SDS011;41113;41.882;12.530;2023-04-30T14:46:25;16.45;;;7.90;;
54947;SDS011;41113;41.882;12.530;2023-04-30T14:48:51;14.65;;;8.50;;
54947;SDS011;41113;41.882;12.530;2023-04-30T14:51:21;15.45;;;8.30;;